createdAt,value
2023-01-03T00:01:34.368Z,15.00
2023-01-03T00:04:02.174Z,9.25
2023-01-03T00:06:38.699Z,12.50
2023-01-03T00:09:09.879Z,12.75
2023-01-03T00:11:57.680Z,9.00
2023-01-03T00:14:27.673Z,11.50
2023-01-03T00:16:57.182Z,15.00
2023-01-03T00:19:26.045Z,11.00
2023-01-03T00:21:53.814Z,12.00
2023-01-03T00:24:22.516Z,13.00
2023-01-03T00:26:49.666Z,11.25
2023-01-03T00:29:17.129Z,7.00
2023-01-03T00:31:44.183Z,9.75
2023-01-03T00:34:11.488Z,12.25
2023-01-03T00:36:39.097Z,4.00
2023-01-03T00:39:07.277Z,8.75
2023-01-03T00:41:34.597Z,5.50
2023-01-03T00:44:01.643Z,7.75
2023-01-03T00:46:28.978Z,9.00
2023-01-03T00:48:55.968Z,11.00
2023-01-03T00:51:26.558Z,12.00
2023-01-03T00:53:56.363Z,13.50
2023-01-03T00:56:34.939Z,11.25
2023-01-03T00:59:02.760Z,11.50
2023-01-03T01:01:46.801Z,7.75
2023-01-03T01:04:25.511Z,9.75
2023-01-03T01:07:00.973Z,8.00
2023-01-03T01:09:32.538Z,7.00
2023-01-03T01:11:59.634Z,9.00
2023-01-03T01:14:29.425Z,9.00
2023-01-03T01:17:02.084Z,10.50
2023-01-03T01:19:33.341Z,7.00
2023-01-03T01:22:00.912Z,9.00
2023-01-03T01:24:28.127Z,7.00
2023-01-03T01:26:55.043Z,7.50
2023-01-03T01:29:22.636Z,7.25
2023-01-03T01:31:49.995Z,8.00
2023-01-03T01:34:17.539Z,7.25
2023-01-03T01:36:45.979Z,8.00
2023-01-03T01:39:17.559Z,8.75
2023-01-03T01:42:04.430Z,9.00
2023-01-03T01:44:43.234Z,10.00
2023-01-03T01:47:33.298Z,13.50
2023-01-03T01:50:18.546Z,10.50
2023-01-03T01:53:10.145Z,12.00
2023-01-03T01:55:57.235Z,10.00
2023-01-03T01:58:29.175Z,9.00
2023-01-03T02:00:56.715Z,8.50
2023-01-03T02:03:23.668Z,8.50
2023-01-03T02:05:54.879Z,9.50
2023-01-03T02:08:36.575Z,7.50
2023-01-03T02:11:37.964Z,7.00
2023-01-03T02:14:52.529Z,7.50
2023-01-03T02:18:00.823Z,6.00
2023-01-03T02:20:58.711Z,8.75
2023-01-03T02:24:31.675Z,8.25
2023-01-03T02:27:46.523Z,10.00
2023-01-03T02:30:36.873Z,11.50
2023-01-03T02:33:24.402Z,10.50
2023-01-03T02:36:20.865Z,11.00
2023-01-03T02:38:59.950Z,13.75
2023-01-03T02:41:45.356Z,13.50
2023-01-03T02:44:34.195Z,14.25
2023-01-03T02:47:12.285Z,15.00
2023-01-03T02:49:44.314Z,13.75
2023-01-03T02:52:15.869Z,13.75
2023-01-03T02:54:50.116Z,12.50
2023-01-03T02:57:25.445Z,10.75
2023-01-03T02:59:58.245Z,14.50
2023-01-03T03:02:32.964Z,15.75
2023-01-03T03:05:03.113Z,12.75
2023-01-03T03:07:34.747Z,15.25
2023-01-03T03:10:19.993Z,13.00
2023-01-03T03:13:11.971Z,13.00
2023-01-03T03:15:54.806Z,11.50
2023-01-03T03:18:44.590Z,9.00
2023-01-03T03:21:33.893Z,7.00
2023-01-03T03:24:30.149Z,10.25
2023-01-03T03:27:00.013Z,9.25
2023-01-03T03:29:29.371Z,7.75
2023-01-03T03:31:57.356Z,7.50
2023-01-03T03:34:31.273Z,6.00
2023-01-03T03:37:26.394Z,9.75
2023-01-03T03:40:14.100Z,5.50
2023-01-03T03:43:26.098Z,7.50
2023-01-03T03:46:05.116Z,6.25
2023-01-03T03:49:01.676Z,6.00
2023-01-03T03:51:33.611Z,5.50
2023-01-03T03:54:04.550Z,5.50
2023-01-03T03:56:34.469Z,7.00
2023-01-03T03:59:06.777Z,8.00
2023-01-03T04:01:37.091Z,9.75
2023-01-03T04:04:10.828Z,7.00
2023-01-03T04:06:44.491Z,6.00
2023-01-03T04:09:12.110Z,5.00
2023-01-03T04:11:38.997Z,7.75
2023-01-03T04:14:05.990Z,7.50
2023-01-03T04:16:33.636Z,3.00
2023-01-03T04:19:00.545Z,8.25
2023-01-03T04:21:27.785Z,6.25
2023-01-03T04:23:54.745Z,7.50
2023-01-03T04:26:23.034Z,9.00
2023-01-03T04:28:49.939Z,8.00
2023-01-03T04:31:16.863Z,7.00
2023-01-03T04:33:43.866Z,7.75
2023-01-03T04:36:11.210Z,2.50
2023-01-03T04:38:38.335Z,8.50
2023-01-03T04:41:09.411Z,8.00
2023-01-03T04:43:55.562Z,8.00
2023-01-03T04:46:24.103Z,8.25
2023-01-03T04:48:51.107Z,5.25
2023-01-03T04:51:17.994Z,4.00
2023-01-03T04:53:44.948Z,6.00
2023-01-03T04:56:11.927Z,9.00
2023-01-03T04:58:39.071Z,7.75
2023-01-03T05:01:08.506Z,13.00
2023-01-03T05:03:36.080Z,11.25
2023-01-03T05:06:06.829Z,9.25
2023-01-03T05:08:34.006Z,8.50
2023-01-03T05:11:01.585Z,10.00
2023-01-03T05:13:28.504Z,9.75
2023-01-03T05:15:55.451Z,7.75
2023-01-03T05:18:22.611Z,12.75
2023-01-03T05:21:08.219Z,12.00
2023-01-03T05:23:53.592Z,10.25
2023-01-03T05:26:22.133Z,12.00
2023-01-03T05:28:53.060Z,15.75
2023-01-03T05:31:23.001Z,15.00
2023-01-03T05:33:50.007Z,15.75
2023-01-03T05:36:16.936Z,11.00
2023-01-03T05:38:44.004Z,9.00
2023-01-03T05:41:14.181Z,9.75
2023-01-03T05:43:41.186Z,9.50
2023-01-03T05:46:08.386Z,12.50
2023-01-03T05:48:35.395Z,12.00
2023-01-03T05:51:02.338Z,13.00
2023-01-03T05:53:29.279Z,7.75
2023-01-03T05:55:56.157Z,8.25
2023-01-03T05:58:23.160Z,7.50
2023-01-03T06:00:50.245Z,7.00
2023-01-03T06:03:17.206Z,8.50
2023-01-03T06:05:50.136Z,8.00
2023-01-03T06:08:17.393Z,12.00
2023-01-03T06:10:44.371Z,7.75
2023-01-03T06:13:11.858Z,4.00
2023-01-03T06:15:38.982Z,7.75
2023-01-03T06:18:05.866Z,6.75
2023-01-03T06:20:33.127Z,7.75
2023-01-03T06:23:00.163Z,4.00
2023-01-03T06:25:27.440Z,6.00
2023-01-03T06:27:55.982Z,4.00
2023-01-03T06:30:22.957Z,3.00
2023-01-03T06:32:49.852Z,6.25
2023-01-03T06:35:16.903Z,9.00
2023-01-03T06:37:43.881Z,8.00
2023-01-03T06:40:11.187Z,8.75
2023-01-03T06:42:43.268Z,4.50
2023-01-03T06:45:32.100Z,6.25
2023-01-03T06:48:17.964Z,7.50
2023-01-03T06:51:03.935Z,7.00
2023-01-03T06:53:35.436Z,5.00
2023-01-03T06:56:03.716Z,5.00
2023-01-03T06:58:31.135Z,2.25
2023-01-03T07:01:00.360Z,5.50
2023-01-03T07:03:27.327Z,4.50
2023-01-03T07:05:54.519Z,3.50
2023-01-03T07:08:21.501Z,3.00
2023-01-03T07:10:48.456Z,15.50
2023-01-03T07:13:34.014Z,23.25
2023-01-03T07:16:03.010Z,21.00
2023-01-03T07:18:30.090Z,27.00
2023-01-03T07:20:57.005Z,22.50
2023-01-03T07:23:24.035Z,21.75
2023-01-03T07:25:55.197Z,24.25
2023-01-03T07:28:22.119Z,20.75
2023-01-03T07:30:49.107Z,20.00
2023-01-03T07:33:17.384Z,16.25
2023-01-03T07:35:45.358Z,24.75
2023-01-03T07:38:13.836Z,25.50
2023-01-03T07:40:40.835Z,22.00
2023-01-03T07:43:29.518Z,18.50
2023-01-03T07:45:56.523Z,22.50
2023-01-03T07:48:23.539Z,22.50
2023-01-03T07:50:50.468Z,24.75
2023-01-03T07:53:18.219Z,24.25
2023-01-03T07:55:48.018Z,23.00
2023-01-03T07:58:15.075Z,24.00
2023-01-03T08:00:42.412Z,22.75
2023-01-03T08:03:11.362Z,24.25
2023-01-03T08:05:39.403Z,19.50
2023-01-03T08:08:06.800Z,15.25
2023-01-03T08:10:52.547Z,18.50
2023-01-03T08:13:19.990Z,14.75
2023-01-03T08:15:55.773Z,13.25
2023-01-03T08:18:27.486Z,17.00
2023-01-03T08:20:57.547Z,20.25
2023-01-03T08:23:25.881Z,19.25
2023-01-03T08:25:59.423Z,23.25
2023-01-03T08:28:26.339Z,24.00
2023-01-03T08:30:53.282Z,25.00
2023-01-03T08:33:20.612Z,33.00
2023-01-03T08:36:11.479Z,27.50
2023-01-03T08:38:48.545Z,22.00
2023-01-03T08:41:20.909Z,14.00
2023-01-03T08:43:49.471Z,25.00
2023-01-03T08:46:18.283Z,24.25
2023-01-03T08:48:45.798Z,15.50
2023-01-03T08:51:12.792Z,21.00
2023-01-03T08:53:39.817Z,17.50
2023-01-03T08:56:07.278Z,16.75
2023-01-03T08:58:34.141Z,16.25
2023-01-03T09:01:05.121Z,12.25
2023-01-03T09:03:32.500Z,15.75
2023-01-03T09:06:03.595Z,11.50
2023-01-03T09:08:32.005Z,13.25
2023-01-03T09:10:59.188Z,14.00
2023-01-03T09:13:25.984Z,15.75
2023-01-03T09:16:01.074Z,14.75
2023-01-03T09:18:27.896Z,12.00
2023-01-03T09:20:54.703Z,13.75
2023-01-03T09:23:21.567Z,12.25
2023-01-03T09:25:48.397Z,10.25
2023-01-03T09:28:15.275Z,9.00
2023-01-03T09:30:44.419Z,11.25
2023-01-03T09:33:11.320Z,9.00
2023-01-03T09:35:39.768Z,11.00
2023-01-03T09:38:07.156Z,8.25
2023-01-03T09:40:40.988Z,9.50
2023-01-03T09:43:24.778Z,10.25
2023-01-03T09:45:58.792Z,11.25
2023-01-03T09:48:38.447Z,9.00
2023-01-03T09:51:30.387Z,9.50
2023-01-03T09:54:16.745Z,10.00
2023-01-03T09:57:02.250Z,15.25
2023-01-03T09:59:55.144Z,14.00
2023-01-03T10:02:59.576Z,11.75
2023-01-03T10:05:36.600Z,10.50
2023-01-03T10:08:15.193Z,12.25
2023-01-03T10:11:09.157Z,18.00
2023-01-03T10:13:55.140Z,18.75
2023-01-03T10:16:38.053Z,16.50
2023-01-03T10:19:10.491Z,17.50
2023-01-03T10:21:52.258Z,17.25
2023-01-03T10:24:30.650Z,15.50
2023-01-03T10:27:09.065Z,16.00
2023-01-03T10:29:36.146Z,14.50
2023-01-03T10:32:28.645Z,16.00
2023-01-03T10:35:14.132Z,16.00
2023-01-03T10:37:41.540Z,16.50
2023-01-03T10:40:09.241Z,18.25
2023-01-03T10:42:38.209Z,8.25
2023-01-03T10:45:23.005Z,14.00
2023-01-03T10:48:00.971Z,19.25
2023-01-03T10:50:29.312Z,16.25
2023-01-03T10:53:05.693Z,19.00
2023-01-03T10:55:35.653Z,17.25
2023-01-03T10:58:12.908Z,17.00
2023-01-03T11:00:39.867Z,17.25
2023-01-03T11:03:10.371Z,18.50
2023-01-03T11:05:39.253Z,16.00
2023-01-03T11:08:15.721Z,14.75
2023-01-03T11:10:59.797Z,17.00
2023-01-03T11:13:32.712Z,16.50
2023-01-03T11:16:02.466Z,9.25
2023-01-03T11:18:31.227Z,21.00
2023-01-03T11:21:04.751Z,15.00
2023-01-03T11:23:49.677Z,14.00
2023-01-03T11:27:02.845Z,11.75
2023-01-03T11:29:48.336Z,13.25
2023-01-03T11:32:27.269Z,11.75
2023-01-03T11:35:26.361Z,11.75
2023-01-03T11:38:13.997Z,10.00
2023-01-03T11:41:05.739Z,15.75
2023-01-03T11:43:44.490Z,13.75
2023-01-03T11:46:14.085Z,12.00
2023-01-03T11:48:59.607Z,14.00
2023-01-03T11:51:54.197Z,11.00
2023-01-03T11:55:08.993Z,11.25
2023-01-03T11:57:45.316Z,11.50
2023-01-03T12:00:50.885Z,13.50
2023-01-03T12:03:49.958Z,11.50
2023-01-03T12:06:32.209Z,10.50
2023-01-03T12:09:01.587Z,11.00
2023-01-03T12:11:47.294Z,13.75
2023-01-03T12:14:26.532Z,18.00
2023-01-03T12:17:22.337Z,13.00
2023-01-03T12:19:57.466Z,9.00
2023-01-03T12:22:44.870Z,11.50
2023-01-03T12:25:25.572Z,8.00
2023-01-03T12:28:10.666Z,11.00
2023-01-03T12:30:50.411Z,10.00
2023-01-03T12:33:19.947Z,12.00
2023-01-03T12:36:01.894Z,11.00
2023-01-03T12:38:41.572Z,8.75
2023-01-03T12:41:28.508Z,10.00
2023-01-03T12:44:07.411Z,10.75
2023-01-03T12:46:42.002Z,11.50
2023-01-03T12:49:22.180Z,12.25
2023-01-03T12:51:49.006Z,10.75
2023-01-03T12:54:42.628Z,10.00
2023-01-03T12:57:21.477Z,14.00
2023-01-03T13:00:20.989Z,13.50
2023-01-03T13:03:26.152Z,10.00
2023-01-03T13:06:05.538Z,13.00
2023-01-03T13:08:46.483Z,10.50
2023-01-03T13:11:42.689Z,11.00
2023-01-03T13:14:22.793Z,10.75
2023-01-03T13:16:51.473Z,10.50
2023-01-03T13:19:24.325Z,11.00
2023-01-03T13:21:54.015Z,10.50
2023-01-03T13:24:45.290Z,9.25
2023-01-03T13:27:18.269Z,8.25
2023-01-03T13:29:50.771Z,10.75
2023-01-03T13:32:26.401Z,11.00
2023-01-03T13:34:59.129Z,9.25
2023-01-03T13:37:27.343Z,14.75
2023-01-03T13:40:23.412Z,11.75
2023-01-03T13:43:10.921Z,13.00
2023-01-03T13:45:37.656Z,14.75
2023-01-03T13:48:32.693Z,13.50
2023-01-03T13:51:14.716Z,14.25
2023-01-03T13:54:21.963Z,11.25
2023-01-03T13:56:48.740Z,9.00
2023-01-03T13:59:15.613Z,9.50
2023-01-03T14:01:57.858Z,15.50
2023-01-03T14:04:33.895Z,21.50
2023-01-03T14:07:21.800Z,14.25
2023-01-03T14:10:15.191Z,16.00
2023-01-03T14:12:51.121Z,13.75
2023-01-03T14:15:25.853Z,15.75
2023-01-03T14:18:00.016Z,15.50
2023-01-03T14:20:31.259Z,12.75
2023-01-03T14:23:23.927Z,12.25
2023-01-03T14:25:52.895Z,12.00
2023-01-03T14:28:23.418Z,13.50
2023-01-03T14:30:56.324Z,13.00
2023-01-03T14:33:25.917Z,12.00
2023-01-03T14:36:05.559Z,13.25
2023-01-03T14:38:34.403Z,11.25
2023-01-03T14:41:01.762Z,10.50
2023-01-03T14:43:33.108Z,14.00
2023-01-03T14:46:08.572Z,18.50
2023-01-03T14:48:35.392Z,15.00
2023-01-03T14:51:04.752Z,14.75
2023-01-03T14:53:33.577Z,14.50
2023-01-03T14:56:01.497Z,14.50
2023-01-03T14:58:42.719Z,13.50
2023-01-03T15:01:11.907Z,12.50
2023-01-03T15:03:43.199Z,13.00
2023-01-03T15:06:23.395Z,12.75
2023-01-03T15:08:56.327Z,10.25
2023-01-03T15:11:28.476Z,12.50
2023-01-03T15:14:05.194Z,9.75
2023-01-03T15:16:37.832Z,18.25
2023-01-03T15:19:16.071Z,17.00
2023-01-03T15:21:43.420Z,12.50
2023-01-03T15:24:14.804Z,14.75
2023-01-03T15:26:48.602Z,16.25
2023-01-03T15:29:25.622Z,19.25
2023-01-03T15:31:55.739Z,19.00
2023-01-03T15:34:39.185Z,15.50
2023-01-03T15:37:17.722Z,13.25
2023-01-03T15:39:56.135Z,13.25
2023-01-03T15:42:58.025Z,13.75
2023-01-03T15:45:29.284Z,6.50
2023-01-03T15:48:01.489Z,14.00
2023-01-03T15:50:44.088Z,15.50
2023-01-03T15:53:21.875Z,17.00
2023-01-03T15:55:51.639Z,17.25
2023-01-03T15:58:18.717Z,16.50
2023-01-03T16:00:45.651Z,17.00
2023-01-03T16:03:17.986Z,17.75
2023-01-03T16:05:45.555Z,14.25
2023-01-03T16:08:25.597Z,22.50
2023-01-03T16:10:53.408Z,18.00
2023-01-03T16:13:22.150Z,19.50
2023-01-03T16:15:50.927Z,19.00
2023-01-03T16:18:24.365Z,16.25
2023-01-03T16:20:51.303Z,13.00
2023-01-03T16:23:30.435Z,13.25
2023-01-03T16:25:57.915Z,12.00
2023-01-03T16:28:25.915Z,9.00
2023-01-03T16:31:16.461Z,6.00
2023-01-03T16:33:46.247Z,7.25
2023-01-03T16:36:39.608Z,7.00
2023-01-03T16:39:21.538Z,6.00
2023-01-03T16:42:07.935Z,17.00
2023-01-03T16:44:37.027Z,23.75
2023-01-03T16:47:10.220Z,14.25
2023-01-03T16:49:37.595Z,21.25
2023-01-03T16:52:04.743Z,25.00
2023-01-03T16:54:31.878Z,21.50
2023-01-03T16:56:58.796Z,23.75
2023-01-03T16:59:25.839Z,22.00
2023-01-03T17:01:52.968Z,20.75
2023-01-03T17:04:19.978Z,17.00
2023-01-03T17:06:46.957Z,16.75
2023-01-03T17:09:30.432Z,13.25
2023-01-03T17:11:57.539Z,12.00
2023-01-03T17:14:24.733Z,19.50
2023-01-03T17:16:51.703Z,21.00
2023-01-03T17:22:15.753Z,11.50
2023-01-03T17:24:43.747Z,11.00
2023-01-03T17:27:27.828Z,11.25
2023-01-03T17:30:02.698Z,7.75
2023-01-03T17:32:30.316Z,4.00
2023-01-03T17:34:59.346Z,4.25
2023-01-03T17:37:26.636Z,6.00
2023-01-03T17:39:56.893Z,4.00
2023-01-03T17:42:25.912Z,3.75
2023-01-03T17:45:12.045Z,0.00
2023-01-03T17:48:02.440Z,2.50
2023-01-03T17:50:31.081Z,0.50
2023-01-03T17:52:59.884Z,3.75
2023-01-03T17:55:29.321Z,7.00
2023-01-03T17:57:57.568Z,5.00
2023-01-03T18:00:26.821Z,6.50
2023-01-03T18:02:55.763Z,5.00
2023-01-03T18:05:28.986Z,4.00
2023-01-03T18:07:58.802Z,5.50
2023-01-03T18:10:53.871Z,7.75
2023-01-03T18:13:28.309Z,7.75
2023-01-03T18:15:56.012Z,6.00
2023-01-03T18:18:25.133Z,9.25
2023-01-03T18:20:52.951Z,4.50
2023-01-03T18:23:32.218Z,8.00
2023-01-03T18:26:03.239Z,16.00
2023-01-03T18:28:30.396Z,4.75
2023-01-03T18:30:58.097Z,13.50
2023-01-03T18:33:25.855Z,6.50
2023-01-03T18:35:53.459Z,12.75
2023-01-03T18:38:27.415Z,10.25
2023-01-03T18:41:00.700Z,23.75
2023-01-03T18:43:33.432Z,15.50
2023-01-03T18:46:00.651Z,28.75
2023-01-03T18:48:28.055Z,25.25
2023-01-03T18:50:58.922Z,26.00
2023-01-03T18:53:31.705Z,48.67
2023-01-03T18:55:59.440Z,51.67
2023-01-03T18:58:34.253Z,49.33
2023-01-03T19:01:01.679Z,51.33
2023-01-03T19:03:32.103Z,47.00
2023-01-03T19:06:01.284Z,39.67
2023-01-03T19:08:32.663Z,26.67
2023-01-03T19:11:08.695Z,34.00
2023-01-03T19:13:56.311Z,26.50
2023-01-03T19:16:28.526Z,19.00
2023-01-03T19:18:57.143Z,21.25
2023-01-03T19:21:26.820Z,19.00
2023-01-03T19:24:20.897Z,32.00
2023-01-03T19:26:53.138Z,46.33
2023-01-03T19:29:24.062Z,45.33
2023-01-03T19:31:54.488Z,39.25
2023-01-03T19:34:24.280Z,37.50
2023-01-03T19:36:52.475Z,45.67
2023-01-03T19:39:25.198Z,39.00
2023-01-03T19:42:17.146Z,36.25
2023-01-03T19:44:44.494Z,39.00
2023-01-03T19:47:18.695Z,43.67
2023-01-03T19:49:48.402Z,39.00
2023-01-03T19:52:16.945Z,43.25
2023-01-03T19:54:44.737Z,38.00
2023-01-03T19:57:33.829Z,33.25
2023-01-03T20:00:03.855Z,37.00
2023-01-03T20:02:35.996Z,31.75
2023-01-03T20:05:03.728Z,27.25
2023-01-03T20:07:30.793Z,22.00
2023-01-03T20:09:57.744Z,31.75
2023-01-03T20:12:26.726Z,26.50
2023-01-03T20:15:00.012Z,19.00
2023-01-03T20:17:31.400Z,16.75
2023-01-03T20:19:58.284Z,21.25
2023-01-03T20:23:02.420Z,20.25
2023-01-03T20:25:30.368Z,13.25
2023-01-03T20:27:58.804Z,14.00
2023-01-03T20:30:29.133Z,9.50
2023-01-03T20:32:56.835Z,5.00
2023-01-03T20:38:13.207Z,4.00
2023-01-03T20:40:40.249Z,9.00
2023-01-03T20:43:14.075Z,16.75
2023-01-03T20:45:41.190Z,19.00
2023-01-03T20:48:18.046Z,18.75
2023-01-03T20:50:50.342Z,14.00
2023-01-03T20:53:20.058Z,13.50
2023-01-03T20:55:48.230Z,11.00
2023-01-03T20:58:17.479Z,11.50
2023-01-03T21:00:45.902Z,9.75
2023-01-03T21:03:13.377Z,12.00
2023-01-03T21:05:40.522Z,9.00
2023-01-03T21:08:30.855Z,7.75
2023-01-03T21:10:57.852Z,8.75
2023-01-03T21:13:24.790Z,8.25
2023-01-03T21:15:51.804Z,9.75
2023-01-03T21:18:19.310Z,11.00
2023-01-03T21:20:46.621Z,9.50
2023-01-03T21:23:22.299Z,12.00
2023-01-03T21:25:50.104Z,5.00
2023-01-03T21:28:17.029Z,13.00
2023-01-03T21:30:44.019Z,12.50
2023-01-03T21:33:18.133Z,9.50
2023-01-03T21:35:46.444Z,10.00
2023-01-03T21:38:13.503Z,3.50
2023-01-03T21:40:40.706Z,2.50
2023-01-03T21:43:08.009Z,20.25
2023-01-03T21:45:48.422Z,19.75
2023-01-03T21:48:18.021Z,32.75
2023-01-03T21:50:47.130Z,30.50
2023-01-03T21:53:16.265Z,30.25
2023-01-03T21:55:43.415Z,38.00
2023-01-03T21:58:15.030Z,38.33
2023-01-03T22:00:42.670Z,37.00
2023-01-03T22:03:35.266Z,38.33
2023-01-03T22:06:13.990Z,29.25
2023-01-03T22:08:41.218Z,22.50
2023-01-03T22:11:08.430Z,46.00
2023-01-03T22:13:36.270Z,54.67
2023-01-03T22:16:06.232Z,61.00
2023-01-03T22:18:33.975Z,50.33
2023-01-03T22:21:07.892Z,38.00
2023-01-03T22:23:35.143Z,36.00
2023-01-03T22:26:03.620Z,23.67
2023-01-03T22:28:38.416Z,23.67
2023-01-03T22:31:14.364Z,45.33
2023-01-03T22:33:41.434Z,60.00
2023-01-03T22:36:08.837Z,62.67
2023-01-03T22:38:36.785Z,57.00
2023-01-03T22:41:10.623Z,51.00
2023-01-03T22:43:38.146Z,56.67
2023-01-03T22:46:13.403Z,56.00
2023-01-03T22:48:40.923Z,44.00
2023-01-03T22:51:12.030Z,41.33
2023-01-03T22:53:41.376Z,36.33
2023-01-03T22:56:15.381Z,27.00
2023-01-03T22:58:43.376Z,35.67
2023-01-03T23:01:15.460Z,40.67
2023-01-03T23:03:43.617Z,38.00
2023-01-03T23:06:13.266Z,27.00
2023-01-03T23:08:41.351Z,22.00
2023-01-03T23:11:34.001Z,26.67
2023-01-03T23:14:03.853Z,31.33
2023-01-03T23:16:32.520Z,31.67
2023-01-03T23:19:02.200Z,25.67
2023-01-03T23:21:29.667Z,16.33
2023-01-03T23:23:56.704Z,20.33
2023-01-03T23:26:24.844Z,17.33
2023-01-03T23:28:59.651Z,20.00
2023-01-03T23:31:27.863Z,19.33
2023-01-03T23:33:56.294Z,27.00
2023-01-03T23:36:23.949Z,42.00
2023-01-03T23:38:53.102Z,38.67
2023-01-03T23:41:20.195Z,21.67
2023-01-03T23:43:47.446Z,25.33
2023-01-03T23:46:16.755Z,24.67
2023-01-03T23:48:43.720Z,14.33
2023-01-03T23:51:12.501Z,12.75
2023-01-03T23:53:42.015Z,13.67
2023-01-03T23:56:15.947Z,12.00
2023-01-03T23:58:43.190Z,7.00
